Seavoyager — 9HUM8 — position and weather

sailwx.info

Track history (hours):
 
Tides and Currents Weather Stations Pressure Air Temp Water Temp Dewpoint Dewpoint Depression Visibility Wind Speed Wind Dir Waves Ship Positions

Seavoyager

Last reported at 2018-Jan-22 22:23 UTC. Time now 2018-Feb-20 08:10 UTC.
Position N 27°35' W 096°09'.
Warning: this ship's position is 28 days out of date.

Length 274 m; draft 10.8 m.

Type: Ship (hazmat cat A). MMSI: 256439000.

Date/timePositionNaut miles runAvg speedWind from/ knotsBaromVisibWave heightAir tempDewpointWater temp
2018-Jan-22 22:23N 27°35' W 096°09'410.7
2018-Jan-22 22:00N 27°35' W 096°14'511.0
2018-Jan-22 21:30N 27°34' W 096°20'611.3
2018-Jan-22 20:59N 27°34' W 096°27'511.0
2018-Jan-22 20:30N 27°33' W 096°33'510.7
2018-Jan-22 20:00N 27°35' W 096°38'611.3
2018-Jan-22 19:29N 27°38' W 096°44'511.3
2018-Jan-22 19:00N 27°41' W 096°49'611.5
2018-Jan-22 18:30N 27°45' W 096°54'510.6
2018-Jan-22 17:59N 27°48' W 096°59'510.8
2018-Jan-22 17:29N 27°50' W 097°05'611.7
2018-Jan-22 16:59N 27°49' W 097°11'612.1
2018-Jan-22 16:29N 27°49' W 097°18'510.7
2018-Jan-22 16:00N 27°49' W 097°24'2 4.6
2018-Jan-22 15:30N 27°49' W 097°26'3 5.3
2018-Jan-22 15:00N 27°49' W 097°29'0 0.4
2018-Jan-22 14:28N 27°49' W 097°29'0 0.0
2018-Jan-22 13:55N 27°50' W 097°29'0 0.0
2018-Jan-22 13:28N 27°49' W 097°29'0 0.0
2018-Jan-22 12:58N 27°49' W 097°29'0 0.0
2018-Jan-22 12:28N 27°49' W 097°29'0 0.0
2018-Jan-22 11:58N 27°49' W 097°29'0 0.0
2018-Jan-22 11:28N 27°49' W 097°29'  
Track history (hours):
 
Tides and Currents Weather Stations Pressure Air Temp Water Temp Dewpoint Dewpoint Depression Visibility Wind Speed Wind Dir Waves Ship Positions

Seavoyager

Last reported at 2018-Jan-22 22:23 UTC. Time now 2018-Feb-20 08:10 UTC.
Position N 27°35' W 096°09'.
Warning: this ship's position is 28 days out of date.

Length 274 m; draft 10.8 m.

Type: Ship (hazmat cat A). MMSI: 256439000.

Date/timePositionNaut miles runAvg speedWind from/ knotsBaromVisibWave heightAir tempDewpointWater temp
2018-Jan-22 22:23N 27°35' W 096°09'410.7
2018-Jan-22 22:00N 27°35' W 096°14'511.0
2018-Jan-22 21:30N 27°34' W 096°20'611.3
2018-Jan-22 20:59N 27°34' W 096°27'511.0
2018-Jan-22 20:30N 27°33' W 096°33'510.7
2018-Jan-22 20:00N 27°35' W 096°38'611.3
2018-Jan-22 19:29N 27°38' W 096°44'511.3
2018-Jan-22 19:00N 27°41' W 096°49'611.5
2018-Jan-22 18:30N 27°45' W 096°54'510.6
2018-Jan-22 17:59N 27°48' W 096°59'510.8
2018-Jan-22 17:29N 27°50' W 097°05'611.7
2018-Jan-22 16:59N 27°49' W 097°11'612.1
2018-Jan-22 16:29N 27°49' W 097°18'510.7
2018-Jan-22 16:00N 27°49' W 097°24'2 4.6
2018-Jan-22 15:30N 27°49' W 097°26'3 5.3
2018-Jan-22 15:00N 27°49' W 097°29'0 0.4
2018-Jan-22 14:28N 27°49' W 097°29'0 0.0
2018-Jan-22 13:55N 27°50' W 097°29'0 0.0
2018-Jan-22 13:28N 27°49' W 097°29'0 0.0
2018-Jan-22 12:58N 27°49' W 097°29'0 0.0
2018-Jan-22 12:28N 27°49' W 097°29'0 0.0
2018-Jan-22 11:58N 27°49' W 097°29'0 0.0
2018-Jan-22 11:28N 27°49' W 097°29'  

Dump ship's entire track history